createdAt,value
2023-05-07T00:01:12.908Z,14.21
2023-05-07T00:04:00.627Z,14.15
2023-05-07T00:06:48.155Z,14.11
2023-05-07T00:09:35.713Z,14.12
2023-05-07T00:12:23.389Z,14.12
2023-05-07T00:15:11.555Z,14.07
2023-05-07T00:18:00.760Z,14.06
2023-05-07T00:20:48.472Z,14.04
2023-05-07T00:23:36.021Z,14.04
2023-05-07T00:26:23.945Z,14.01
2023-05-07T00:29:11.419Z,14.03
2023-05-07T00:31:58.923Z,14.03
2023-05-07T00:34:46.393Z,13.95
2023-05-07T00:37:33.914Z,13.95
2023-05-07T00:40:21.384Z,13.94
2023-05-07T00:43:09.081Z,13.90
2023-05-07T00:45:57.215Z,13.92
2023-05-07T00:48:44.978Z,13.89
2023-05-07T00:51:32.473Z,13.87
2023-05-07T00:54:20.906Z,13.88
2023-05-07T00:57:08.653Z,13.85
2023-05-07T00:59:56.831Z,13.85
2023-05-07T01:02:45.031Z,13.79
2023-05-07T01:05:33.192Z,13.75
2023-05-07T01:08:22.070Z,13.71
2023-05-07T01:11:10.463Z,13.67
2023-05-07T01:14:00.842Z,13.67
2023-05-07T01:16:49.878Z,13.63
2023-05-07T01:19:37.902Z,13.62
2023-05-07T01:22:37.985Z,13.62
2023-05-07T01:25:25.949Z,13.61
2023-05-07T01:28:13.446Z,13.59
2023-05-07T01:31:04.835Z,13.62
2023-05-07T01:33:54.411Z,13.69
2023-05-07T01:36:44.708Z,13.61
2023-05-07T01:39:33.391Z,13.65
2023-05-07T01:42:21.424Z,13.61
2023-05-07T01:45:09.539Z,13.62
2023-05-07T01:47:58.913Z,13.64
2023-05-07T01:50:46.836Z,13.60
2023-05-07T01:53:39.056Z,13.59
2023-05-07T01:56:27.050Z,13.54
2023-05-07T01:59:14.999Z,13.52
2023-05-07T02:02:02.492Z,13.48
2023-05-07T02:04:49.959Z,13.40
2023-05-07T02:07:37.613Z,13.41
2023-05-07T02:10:25.169Z,13.38
2023-05-07T02:13:12.713Z,13.38
2023-05-07T02:16:00.353Z,13.38
2023-05-07T02:18:47.888Z,13.39
2023-05-07T02:21:35.352Z,13.38
2023-05-07T02:24:23.096Z,13.41
2023-05-07T02:27:10.580Z,13.39
2023-05-07T02:29:58.341Z,13.40
2023-05-07T02:32:46.018Z,13.36
2023-05-07T02:35:33.611Z,13.31
2023-05-07T02:38:21.187Z,13.31
2023-05-07T02:41:08.762Z,13.30
2023-05-07T02:43:56.255Z,13.31
2023-05-07T02:46:43.712Z,13.36
2023-05-07T02:49:31.140Z,13.31
2023-05-07T02:52:18.588Z,13.30
2023-05-07T02:55:06.931Z,13.32
2023-05-07T02:57:54.419Z,13.32
2023-05-07T03:00:41.858Z,13.27
2023-05-07T03:03:29.334Z,13.28
2023-05-07T03:06:16.807Z,13.21
2023-05-07T03:09:04.424Z,13.24
2023-05-07T03:11:51.887Z,13.25
2023-05-07T03:14:39.369Z,13.21
2023-05-07T03:17:26.970Z,13.23
2023-05-07T03:20:15.068Z,13.23
2023-05-07T03:23:02.672Z,13.20
2023-05-07T03:25:51.006Z,13.17
2023-05-07T03:28:39.021Z,13.18
2023-05-07T03:31:26.530Z,13.18
2023-05-07T03:34:14.001Z,13.15
2023-05-07T03:37:01.989Z,13.15
2023-05-07T03:39:49.405Z,13.17
2023-05-07T03:42:37.008Z,13.19
2023-05-07T03:45:24.430Z,13.20
2023-05-07T03:48:11.935Z,13.15
2023-05-07T03:51:00.229Z,13.11
2023-05-07T03:53:47.731Z,13.10
2023-05-07T03:56:35.236Z,13.12
2023-05-07T03:59:23.871Z,13.07
2023-05-07T04:02:11.371Z,13.03
2023-05-07T04:04:58.811Z,13.02
2023-05-07T04:07:46.219Z,13.03
2023-05-07T04:10:33.715Z,13.05
2023-05-07T04:13:21.168Z,13.03
2023-05-07T04:16:09.433Z,13.03
2023-05-07T04:18:57.178Z,13.03
2023-05-07T04:21:44.920Z,13.00
2023-05-07T04:24:35.350Z,13.00
2023-05-07T04:27:23.083Z,12.95
2023-05-07T04:30:11.275Z,12.91
2023-05-07T04:32:59.162Z,12.90
2023-05-07T04:35:47.518Z,12.92
2023-05-07T04:38:35.063Z,12.87
2023-05-07T04:41:22.521Z,12.82
2023-05-07T04:44:10.697Z,12.71
2023-05-07T04:46:59.091Z,12.72
2023-05-07T04:49:46.556Z,12.70
2023-05-07T04:52:34.036Z,12.66
2023-05-07T04:55:21.535Z,12.60
2023-05-07T04:58:09.237Z,12.58
2023-05-07T05:00:57.827Z,12.56
2023-05-07T05:03:45.309Z,12.53
2023-05-07T05:06:32.760Z,12.52
2023-05-07T05:09:20.206Z,12.50
2023-05-07T05:12:08.704Z,12.48
2023-05-07T05:14:56.254Z,12.43
2023-05-07T05:17:43.811Z,12.49
2023-05-07T05:20:31.539Z,12.41
2023-05-07T05:23:19.137Z,12.53
2023-05-07T05:26:06.609Z,12.57
2023-05-07T05:28:57.305Z,12.57
2023-05-07T05:31:44.807Z,12.52
2023-05-07T05:34:32.376Z,12.56
2023-05-07T05:37:19.936Z,12.64
2023-05-07T05:40:08.367Z,12.68
2023-05-07T05:42:56.126Z,12.66
2023-05-07T05:45:43.650Z,12.72
2023-05-07T05:48:31.475Z,12.82
2023-05-07T05:51:18.990Z,12.84
2023-05-07T05:54:06.637Z,12.87
2023-05-07T05:56:54.165Z,12.91
2023-05-07T05:59:41.630Z,12.95
2023-05-07T06:02:29.170Z,13.13
2023-05-07T06:05:16.886Z,13.29
2023-05-07T06:08:04.803Z,13.34
2023-05-07T06:10:52.365Z,13.41
2023-05-07T06:13:39.863Z,13.45
2023-05-07T06:16:27.550Z,13.53
2023-05-07T06:19:15.104Z,13.60
2023-05-07T06:22:03.809Z,13.67
2023-05-07T06:24:51.585Z,13.66
2023-05-07T06:27:40.919Z,13.86
2023-05-07T06:30:28.599Z,13.89
2023-05-07T06:33:16.094Z,13.82
2023-05-07T06:36:59.986Z,13.66
2023-05-07T06:39:47.421Z,13.74
2023-05-07T06:42:35.070Z,13.95
2023-05-07T06:45:22.527Z,14.13
2023-05-07T06:48:09.976Z,14.29
2023-05-07T06:50:58.866Z,14.69
2023-05-07T06:53:47.352Z,14.93
2023-05-07T06:56:35.985Z,15.21
2023-05-07T06:59:23.417Z,15.28
2023-05-07T07:02:10.893Z,15.36
2023-05-07T07:04:58.356Z,15.38
2023-05-07T07:07:46.370Z,15.26
2023-05-07T07:10:34.099Z,15.13
2023-05-07T07:13:21.586Z,15.13
2023-05-07T07:16:09.211Z,14.94
2023-05-07T07:18:56.739Z,15.01
2023-05-07T07:21:44.457Z,14.92
2023-05-07T07:24:31.879Z,14.92
2023-05-07T07:27:19.388Z,14.90
2023-05-07T07:30:08.083Z,14.75
2023-05-07T07:32:56.564Z,14.87
2023-05-07T07:35:44.017Z,15.08
2023-05-07T07:38:31.658Z,15.42
2023-05-07T07:41:19.099Z,15.68
2023-05-07T07:44:08.822Z,16.02
2023-05-07T07:46:56.285Z,16.26
2023-05-07T07:49:43.838Z,16.62
2023-05-07T07:52:31.329Z,16.79
2023-05-07T07:55:24.256Z,16.78
2023-05-07T07:58:11.775Z,16.70
2023-05-07T08:00:59.566Z,16.64
2023-05-07T08:03:47.101Z,16.52
2023-05-07T08:06:34.665Z,16.51
2023-05-07T08:09:22.188Z,16.48
2023-05-07T08:12:09.824Z,16.52
2023-05-07T08:14:57.423Z,16.49
2023-05-07T08:17:45.445Z,16.37
2023-05-07T08:20:33.417Z,16.31
2023-05-07T08:23:20.950Z,16.38
2023-05-07T08:26:09.885Z,16.35
2023-05-07T08:28:57.396Z,16.35
2023-05-07T08:31:44.854Z,16.35
2023-05-07T08:34:32.315Z,16.43
2023-05-07T08:37:19.808Z,16.44
2023-05-07T08:40:11.406Z,16.43
2023-05-07T08:43:02.203Z,16.41
2023-05-07T08:45:51.290Z,16.48
2023-05-07T08:48:39.010Z,16.49
2023-05-07T08:51:26.981Z,16.61
2023-05-07T08:54:18.075Z,16.69
2023-05-07T08:57:05.701Z,16.71
2023-05-07T08:59:53.120Z,16.66
2023-05-07T09:02:40.950Z,16.60
2023-05-07T09:05:28.576Z,16.62
2023-05-07T09:08:17.611Z,16.59
2023-05-07T09:11:29.724Z,16.44
2023-05-07T09:14:17.297Z,16.50
2023-05-07T09:17:04.837Z,16.44
2023-05-07T09:19:52.351Z,16.53
2023-05-07T09:22:40.204Z,16.52
2023-05-07T09:25:33.159Z,16.56
2023-05-07T09:28:20.780Z,16.63
2023-05-07T09:31:09.453Z,16.72
2023-05-07T09:33:57.543Z,16.94
2023-05-07T09:36:45.048Z,16.95
2023-05-07T09:39:48.703Z,17.15
2023-05-07T09:42:36.336Z,17.41
2023-05-07T09:45:30.727Z,17.65
2023-05-07T09:48:19.957Z,17.73
2023-05-07T09:51:24.085Z,17.80
2023-05-07T09:54:12.425Z,17.85
2023-05-07T09:57:00.834Z,17.99
2023-05-07T09:59:49.180Z,17.97
2023-05-07T10:02:38.481Z,18.13
2023-05-07T10:05:27.123Z,18.20
2023-05-07T10:08:18.175Z,18.26
2023-05-07T10:11:07.351Z,18.41
2023-05-07T10:13:54.969Z,18.38
2023-05-07T10:16:42.891Z,18.63
2023-05-07T10:19:31.364Z,18.77
2023-05-07T10:22:20.173Z,18.92
2023-05-07T10:25:27.039Z,18.86
2023-05-07T10:28:14.941Z,18.85
2023-05-07T10:31:23.974Z,18.85
2023-05-07T10:34:15.377Z,18.77
2023-05-07T10:37:03.872Z,18.92
2023-05-07T10:39:51.488Z,18.93
2023-05-07T10:42:38.968Z,19.07
2023-05-07T10:45:27.290Z,19.14
2023-05-07T10:51:23.164Z,19.42
2023-05-07T10:54:14.022Z,19.47
2023-05-07T10:57:33.558Z,19.32
2023-05-07T11:00:38.917Z,19.37
2023-05-07T11:03:28.619Z,19.43
2023-05-07T11:06:17.839Z,19.44
2023-05-07T11:09:05.350Z,19.53
2023-05-07T11:11:52.849Z,19.66
2023-05-07T11:14:43.697Z,19.71
2023-05-07T11:17:35.715Z,19.72
2023-05-07T11:20:56.772Z,19.63
2023-05-07T11:23:50.096Z,19.66
2023-05-07T11:26:51.457Z,19.64
2023-05-07T11:29:39.247Z,19.63
2023-05-07T11:32:32.730Z,19.59
2023-05-07T11:35:25.638Z,19.45
2023-05-07T11:38:14.508Z,19.51
2023-05-07T11:41:03.109Z,19.65
2023-05-07T11:43:58.626Z,19.90
2023-05-07T11:46:46.675Z,20.14
2023-05-07T11:49:35.696Z,20.20
2023-05-07T11:52:25.159Z,20.35
2023-05-07T11:55:12.869Z,20.42
2023-05-07T11:58:00.467Z,20.39
2023-05-07T12:00:55.419Z,20.54
2023-05-07T12:03:45.415Z,20.68
2023-05-07T12:06:32.907Z,20.89
2023-05-07T12:09:20.568Z,20.99
2023-05-07T12:12:08.431Z,20.90
2023-05-07T12:14:55.883Z,20.80
2023-05-07T12:17:44.016Z,20.77
2023-05-07T12:20:31.568Z,20.76
2023-05-07T12:23:19.605Z,20.78
2023-05-07T12:26:07.824Z,20.68
2023-05-07T12:28:55.474Z,20.67
2023-05-07T12:31:43.868Z,20.79
2023-05-07T12:34:32.838Z,20.89
2023-05-07T12:37:27.079Z,21.11
2023-05-07T12:40:15.878Z,21.22
2023-05-07T12:43:03.418Z,21.41
2023-05-07T12:45:52.811Z,21.46
2023-05-07T12:48:45.125Z,21.31
2023-05-07T12:51:32.630Z,21.41
2023-05-07T12:54:34.239Z,21.61
2023-05-07T12:57:22.410Z,21.74
2023-05-07T13:00:10.942Z,21.85
2023-05-07T13:03:00.478Z,21.93
2023-05-07T13:05:47.997Z,22.04
2023-05-07T13:08:38.964Z,22.02
2023-05-07T13:11:26.406Z,22.02
2023-05-07T13:14:14.186Z,22.03
2023-05-07T13:17:01.642Z,22.07
2023-05-07T13:19:49.235Z,22.09
2023-05-07T13:22:37.058Z,22.09
2023-05-07T13:25:24.623Z,21.75
2023-05-07T13:28:12.096Z,21.61
2023-05-07T13:30:59.579Z,21.61
2023-05-07T13:33:46.995Z,21.55
2023-05-07T13:36:38.407Z,21.51
2023-05-07T13:39:26.044Z,21.40
2023-05-07T13:42:13.493Z,21.49
2023-05-07T13:45:01.606Z,21.47
2023-05-07T13:47:50.876Z,21.49
2023-05-07T13:50:38.340Z,21.51
2023-05-07T13:53:25.984Z,21.43
2023-05-07T13:56:13.392Z,21.28
2023-05-07T13:59:01.255Z,21.07
2023-05-07T14:01:49.342Z,21.34
2023-05-07T14:04:36.812Z,21.46
2023-05-07T14:07:24.261Z,21.51
2023-05-07T14:10:12.749Z,21.51
2023-05-07T14:13:00.496Z,21.53
2023-05-07T14:15:49.849Z,21.65
2023-05-07T14:18:38.368Z,21.76
2023-05-07T14:21:25.876Z,21.74
2023-05-07T14:24:13.530Z,21.65
2023-05-07T14:27:01.194Z,21.52
2023-05-07T14:29:52.217Z,21.59
2023-05-07T14:32:39.654Z,21.65
2023-05-07T14:35:27.142Z,21.68
2023-05-07T14:38:14.592Z,21.64
2023-05-07T14:41:02.110Z,21.60
2023-05-07T14:43:51.307Z,21.58
2023-05-07T14:46:38.758Z,21.54
2023-05-07T14:49:26.228Z,21.60
2023-05-07T14:52:13.686Z,21.62
2023-05-07T14:55:01.614Z,21.64
2023-05-07T14:57:49.088Z,21.52
2023-05-07T15:00:36.589Z,21.43
2023-05-07T15:03:24.545Z,21.45
2023-05-07T15:06:12.121Z,21.44
2023-05-07T15:08:59.634Z,21.45
2023-05-07T15:11:47.110Z,21.49
2023-05-07T15:14:34.702Z,21.56
2023-05-07T15:17:22.402Z,21.67
2023-05-07T15:20:10.488Z,21.71
2023-05-07T15:22:58.161Z,21.77
2023-05-07T15:25:46.841Z,21.73
2023-05-07T15:28:35.992Z,21.80
2023-05-07T15:31:23.694Z,21.79
2023-05-07T15:34:11.389Z,21.74
2023-05-07T15:36:58.818Z,21.67
2023-05-07T15:39:46.286Z,21.59
2023-05-07T15:42:34.852Z,21.63
2023-05-07T15:45:22.503Z,21.60
2023-05-07T15:48:11.752Z,21.51
2023-05-07T15:51:00.349Z,21.43
2023-05-07T15:53:47.973Z,21.39
2023-05-07T15:56:35.523Z,21.31
2023-05-07T15:59:23.065Z,21.31
2023-05-07T16:02:10.720Z,21.36
2023-05-07T16:04:58.187Z,21.47
2023-05-07T16:07:45.620Z,21.51
2023-05-07T16:10:33.099Z,21.58
2023-05-07T16:13:21.394Z,21.64
2023-05-07T16:16:09.011Z,21.65
2023-05-07T16:18:57.275Z,21.55
2023-05-07T16:21:44.870Z,21.52
2023-05-07T16:24:33.014Z,21.50
2023-05-07T16:27:20.409Z,21.51
2023-05-07T16:30:08.949Z,21.64
2023-05-07T16:32:56.625Z,21.68
2023-05-07T16:35:47.946Z,21.72
2023-05-07T16:38:35.425Z,21.57
2023-05-07T16:41:23.401Z,21.46
2023-05-07T16:44:11.133Z,21.57
2023-05-07T16:46:58.594Z,21.55
2023-05-07T16:49:46.090Z,21.61
2023-05-07T16:52:33.626Z,21.59
2023-05-07T16:55:21.227Z,21.60
2023-05-07T16:58:11.556Z,21.41
2023-05-07T17:00:59.105Z,21.40
2023-05-07T17:03:46.749Z,21.32
2023-05-07T17:06:34.296Z,21.30
2023-05-07T17:09:21.739Z,21.26
2023-05-07T17:12:09.237Z,21.18
2023-05-07T17:14:56.773Z,21.12
2023-05-07T17:17:44.420Z,21.02
2023-05-07T17:20:31.953Z,20.89
2023-05-07T17:23:19.432Z,20.78
2023-05-07T17:26:15.711Z,20.68
2023-05-07T17:29:04.077Z,20.60
2023-05-07T17:31:51.995Z,20.56
2023-05-07T17:34:39.403Z,20.45
2023-05-07T17:37:27.488Z,20.46
2023-05-07T17:40:15.714Z,20.39
2023-05-07T17:43:03.259Z,20.40
2023-05-07T17:45:51.350Z,20.35
2023-05-07T17:48:38.904Z,20.25
2023-05-07T17:51:26.608Z,20.20
2023-05-07T17:54:14.073Z,20.13
2023-05-07T17:57:01.659Z,20.10
2023-05-07T17:59:49.388Z,20.10
2023-05-07T18:02:37.209Z,20.06
2023-05-07T18:05:31.461Z,19.96
2023-05-07T18:08:18.930Z,19.97
2023-05-07T18:11:06.670Z,19.89
2023-05-07T18:13:54.137Z,19.82
2023-05-07T18:16:41.838Z,19.81
2023-05-07T18:19:29.391Z,19.74
2023-05-07T18:22:16.966Z,19.71
2023-05-07T18:25:05.261Z,19.60
2023-05-07T18:27:52.742Z,19.57
2023-05-07T18:30:40.392Z,19.54
2023-05-07T18:33:27.855Z,19.49
2023-05-07T18:36:15.286Z,19.45
2023-05-07T18:39:03.889Z,19.42
2023-05-07T18:41:51.342Z,19.35
2023-05-07T18:44:39.184Z,19.26
2023-05-07T18:47:26.621Z,19.22
2023-05-07T18:50:14.631Z,19.17
2023-05-07T18:53:02.501Z,19.15
2023-05-07T18:55:53.885Z,19.05
2023-05-07T18:58:41.289Z,18.99
2023-05-07T19:01:28.823Z,18.92
2023-05-07T19:04:17.784Z,18.80
2023-05-07T19:07:05.336Z,18.77
2023-05-07T19:10:04.118Z,18.65
2023-05-07T19:12:55.854Z,18.60
2023-05-07T19:15:43.501Z,18.53
2023-05-07T19:18:32.228Z,18.42
2023-05-07T19:21:19.734Z,18.36
2023-05-07T19:24:07.973Z,18.23
2023-05-07T19:26:55.390Z,18.18
2023-05-07T19:29:43.990Z,18.08
2023-05-07T19:32:31.633Z,18.04
2023-05-07T19:35:19.442Z,17.92
2023-05-07T19:38:07.746Z,17.87
2023-05-07T19:40:56.180Z,17.78
2023-05-07T19:43:43.625Z,17.70
2023-05-07T19:46:31.151Z,17.60
2023-05-07T19:49:18.834Z,17.51
2023-05-07T19:52:06.413Z,17.46
2023-05-07T19:54:54.229Z,17.38
2023-05-07T19:57:41.701Z,17.25
2023-05-07T20:00:32.563Z,17.19
2023-05-07T20:03:20.112Z,17.12
2023-05-07T20:06:07.602Z,17.03
2023-05-07T20:08:55.092Z,17.00
2023-05-07T20:11:42.573Z,16.93
2023-05-07T20:14:30.109Z,16.87
2023-05-07T20:17:17.657Z,16.81
2023-05-07T20:20:05.908Z,16.79
2023-05-07T20:22:53.311Z,16.75
2023-05-07T20:25:42.376Z,16.71
2023-05-07T20:28:30.289Z,16.66
2023-05-07T20:31:18.584Z,16.62
2023-05-07T20:34:06.069Z,16.57
2023-05-07T20:36:53.871Z,16.50
2023-05-07T20:39:42.235Z,16.45
2023-05-07T20:42:30.093Z,16.41
2023-05-07T20:45:17.675Z,16.35
2023-05-07T20:48:05.416Z,16.28
2023-05-07T20:50:52.888Z,16.23
2023-05-07T20:53:41.153Z,16.14
2023-05-07T20:56:28.545Z,16.08
2023-05-07T20:59:16.658Z,16.04
2023-05-07T21:02:04.215Z,15.95
2023-05-07T21:04:52.764Z,15.85
2023-05-07T21:07:40.219Z,15.76
2023-05-07T21:10:27.828Z,15.71
2023-05-07T21:13:16.154Z,15.64
2023-05-07T21:16:04.056Z,15.56
2023-05-07T21:18:51.523Z,15.49
2023-05-07T21:21:39.185Z,15.43
2023-05-07T21:24:26.830Z,15.38
2023-05-07T21:27:14.512Z,15.30
2023-05-07T21:30:05.109Z,15.22
2023-05-07T21:32:53.382Z,15.16
2023-05-07T21:35:41.022Z,15.11
2023-05-07T21:38:28.528Z,15.06
2023-05-07T21:41:16.000Z,15.02
2023-05-07T21:44:05.015Z,14.95
2023-05-07T21:46:52.451Z,14.91
2023-05-07T21:49:41.833Z,14.85
2023-05-07T21:52:29.355Z,14.82
2023-05-07T21:55:19.133Z,14.73
2023-05-07T21:58:06.576Z,14.67
2023-05-07T22:00:54.315Z,14.62
2023-05-07T22:03:41.926Z,14.58
2023-05-07T22:06:29.449Z,14.48
2023-05-07T22:09:17.350Z,14.44
2023-05-07T22:12:05.345Z,14.39
2023-05-07T22:14:52.775Z,14.31
2023-05-07T22:17:40.346Z,14.29
2023-05-07T22:20:28.044Z,14.26
2023-05-07T22:23:15.854Z,14.17
2023-05-07T22:26:11.875Z,14.06
2023-05-07T22:28:59.214Z,14.03
2023-05-07T22:31:46.632Z,14.00
2023-05-07T22:34:34.142Z,13.93
2023-05-07T22:37:21.545Z,13.87
2023-05-07T22:40:10.033Z,13.85
2023-05-07T22:42:57.673Z,13.81
2023-05-07T22:45:45.196Z,13.75
2023-05-07T22:48:35.688Z,13.73
2023-05-07T22:51:23.206Z,13.69
2023-05-07T22:54:11.510Z,13.70
2023-05-07T22:57:00.194Z,13.71
2023-05-07T22:59:47.617Z,13.72
2023-05-07T23:02:35.117Z,13.76
2023-05-07T23:05:23.167Z,13.77
2023-05-07T23:08:10.789Z,13.82
2023-05-07T23:10:58.229Z,13.83
2023-05-07T23:13:45.718Z,13.89
2023-05-07T23:16:33.372Z,13.88
2023-05-07T23:19:20.923Z,13.89
2023-05-07T23:22:08.461Z,13.91
2023-05-07T23:24:56.079Z,13.90
2023-05-07T23:27:43.539Z,13.91
2023-05-07T23:30:30.983Z,13.89
2023-05-07T23:33:18.378Z,13.83
2023-05-07T23:36:07.819Z,13.74
2023-05-07T23:38:55.552Z,13.70
2023-05-07T23:41:43.189Z,13.66
2023-05-07T23:44:30.580Z,13.58
2023-05-07T23:47:18.170Z,13.54
2023-05-07T23:50:06.451Z,13.47
2023-05-07T23:52:53.909Z,13.39
2023-05-07T23:55:41.304Z,13.35
2023-05-07T23:58:28.742Z,13.27
